Dicle Deniz — TCWP2 — position and weather

sailwx.info

Track history (hours):
 
Tides and Currents Weather Stations Pressure Air Temp Water Temp Dewpoint Dewpoint Depression Visibility Wind Speed Wind Dir Waves Ship Positions

Dicle Deniz

Last reported at 2018-Jan-11 20:10 UTC. Time now 2018-Jan-23 04:26 UTC.
Position N 37°35' W 009°13'.
Warning: this ship's position is 11 days out of date.

Length 88 m; draft 5.7 m.

Type: Tanker. MMSI: 271040029.

Date/timePositionNaut miles runAvg speedWind from/ knotsBaromVisibWave heightAir tempDewpointWater temp
2018-Jan-11 20:10N 37°35' W 009°13'3 9.2
2018-Jan-11 19:54N 37°37' W 009°11'4 9.2
2018-Jan-11 19:29N 37°40' W 009°08'4 9.4
2018-Jan-11 19:00N 37°44' W 009°04'5 9.6
2018-Jan-11 18:30N 37°48' W 009°00'5 9.6
2018-Jan-11 18:00N 37°51' W 008°57'5 9.4
2018-Jan-11 17:31N 37°55' W 008°53'2 3.5
2018-Jan-11 16:59N 37°57' W 008°53'0 0.0
2018-Jan-11 16:29N 37°57' W 008°53'0 0.0
2018-Jan-11 15:59N 37°57' W 008°53'0 0.0
2018-Jan-11 15:29N 37°57' W 008°53'0 0.0
2018-Jan-11 14:59N 37°57' W 008°53'0 0.0
2018-Jan-11 14:29N 37°57' W 008°53'0 0.0
2018-Jan-11 13:56N 37°57' W 008°53'0 0.0
2018-Jan-11 13:29N 37°57' W 008°53'0 0.0
2018-Jan-11 12:59N 37°57' W 008°53'0 0.0
2018-Jan-11 12:29N 37°57' W 008°53'0 0.0
2018-Jan-11 11:59N 37°57' W 008°53'0 0.0
2018-Jan-11 11:29N 37°57' W 008°53'0 0.0
2018-Jan-11 10:59N 37°57' W 008°53'0 0.0
2018-Jan-11 10:29N 37°57' W 008°53'0 0.0
2018-Jan-11 09:59N 37°57' W 008°53'0 0.0
2018-Jan-11 09:29N 37°57' W 008°53'0 0.0
2018-Jan-11 08:59N 37°57' W 008°53'0 0.0
2018-Jan-11 08:29N 37°57' W 008°53'0 0.0
2018-Jan-11 07:59N 37°57' W 008°53'0 0.0
2018-Jan-11 07:29N 37°57' W 008°53'0 0.0
2018-Jan-11 06:59N 37°57' W 008°53'0 0.0
2018-Jan-11 06:29N 37°57' W 008°53'0 0.0
2018-Jan-11 05:59N 37°57' W 008°53'0 0.0
2018-Jan-11 05:29N 37°57' W 008°53'0 0.0
2018-Jan-11 04:59N 37°57' W 008°53'0 0.0
2018-Jan-11 04:29N 37°57' W 008°53'0 0.0
2018-Jan-11 03:59N 37°57' W 008°53'0 0.0
2018-Jan-11 03:29N 37°57' W 008°53'0 0.0
2018-Jan-11 02:59N 37°57' W 008°53'0 0.0
2018-Jan-11 02:29N 37°57' W 008°53'0 0.0
2018-Jan-11 01:56N 37°57' W 008°53'0 0.0
2018-Jan-11 01:29N 37°57' W 008°53'0 0.0
2018-Jan-11 00:59N 37°57' W 008°53'0 0.0
2018-Jan-11 00:29N 37°57' W 008°53'0 0.0
2018-Jan-10 23:59N 37°57' W 008°53'0 0.0
2018-Jan-10 23:29N 37°57' W 008°53'0 0.0
2018-Jan-10 22:59N 37°57' W 008°53'0 0.0
2018-Jan-10 22:29N 37°57' W 008°53'0 0.0
2018-Jan-10 21:59N 37°57' W 008°53'0 0.0
2018-Jan-10 21:29N 37°57' W 008°53'0 0.0
2018-Jan-10 20:59N 37°57' W 008°53'0 0.0
2018-Jan-10 20:29N 37°57' W 008°53'0 0.0
2018-Jan-10 19:59N 37°57' W 008°53'0 0.0
2018-Jan-10 19:29N 37°57' W 008°53'0 0.0
2018-Jan-10 18:59N 37°57' W 008°53'0 0.0
2018-Jan-10 18:30N 37°57' W 008°53'1 2.2
2018-Jan-10 18:01N 37°56' W 008°53'2 3.6
2018-Jan-10 17:30N 37°54' W 008°53'2 4.0
2018-Jan-10 17:00N 37°53' W 008°55'2 5.0
2018-Jan-10 16:30N 37°52' W 008°58'4 7.2
2018-Jan-10 16:00N 37°50' W 009°02'4 9.0
2018-Jan-10 15:30N 37°47' W 009°06'5 9.5
2018-Jan-10 15:00N 37°44' W 009°11'5 9.4
2018-Jan-10 14:31N 37°41' W 009°15'510.3
2018-Jan-10 14:00N 37°38' W 009°20'  
Track history (hours):
 
Tides and Currents Weather Stations Pressure Air Temp Water Temp Dewpoint Dewpoint Depression Visibility Wind Speed Wind Dir Waves Ship Positions

Dicle Deniz

Last reported at 2018-Jan-11 20:10 UTC. Time now 2018-Jan-23 04:26 UTC.
Position N 37°35' W 009°13'.
Warning: this ship's position is 11 days out of date.

Length 88 m; draft 5.7 m.

Type: Tanker. MMSI: 271040029.

Date/timePositionNaut miles runAvg speedWind from/ knotsBaromVisibWave heightAir tempDewpointWater temp
2018-Jan-11 20:10N 37°35' W 009°13'3 9.2
2018-Jan-11 19:54N 37°37' W 009°11'4 9.2
2018-Jan-11 19:29N 37°40' W 009°08'4 9.4
2018-Jan-11 19:00N 37°44' W 009°04'5 9.6
2018-Jan-11 18:30N 37°48' W 009°00'5 9.6
2018-Jan-11 18:00N 37°51' W 008°57'5 9.4
2018-Jan-11 17:31N 37°55' W 008°53'2 3.5
2018-Jan-11 16:59N 37°57' W 008°53'0 0.0
2018-Jan-11 16:29N 37°57' W 008°53'0 0.0
2018-Jan-11 15:59N 37°57' W 008°53'0 0.0
2018-Jan-11 15:29N 37°57' W 008°53'0 0.0
2018-Jan-11 14:59N 37°57' W 008°53'0 0.0
2018-Jan-11 14:29N 37°57' W 008°53'0 0.0
2018-Jan-11 13:56N 37°57' W 008°53'0 0.0
2018-Jan-11 13:29N 37°57' W 008°53'0 0.0
2018-Jan-11 12:59N 37°57' W 008°53'0 0.0
2018-Jan-11 12:29N 37°57' W 008°53'0 0.0
2018-Jan-11 11:59N 37°57' W 008°53'0 0.0
2018-Jan-11 11:29N 37°57' W 008°53'0 0.0
2018-Jan-11 10:59N 37°57' W 008°53'0 0.0
2018-Jan-11 10:29N 37°57' W 008°53'0 0.0
2018-Jan-11 09:59N 37°57' W 008°53'0 0.0
2018-Jan-11 09:29N 37°57' W 008°53'0 0.0
2018-Jan-11 08:59N 37°57' W 008°53'0 0.0
2018-Jan-11 08:29N 37°57' W 008°53'0 0.0
2018-Jan-11 07:59N 37°57' W 008°53'0 0.0
2018-Jan-11 07:29N 37°57' W 008°53'0 0.0
2018-Jan-11 06:59N 37°57' W 008°53'0 0.0
2018-Jan-11 06:29N 37°57' W 008°53'0 0.0
2018-Jan-11 05:59N 37°57' W 008°53'0 0.0
2018-Jan-11 05:29N 37°57' W 008°53'0 0.0
2018-Jan-11 04:59N 37°57' W 008°53'0 0.0
2018-Jan-11 04:29N 37°57' W 008°53'0 0.0
2018-Jan-11 03:59N 37°57' W 008°53'0 0.0
2018-Jan-11 03:29N 37°57' W 008°53'0 0.0
2018-Jan-11 02:59N 37°57' W 008°53'0 0.0
2018-Jan-11 02:29N 37°57' W 008°53'0 0.0
2018-Jan-11 01:56N 37°57' W 008°53'0 0.0
2018-Jan-11 01:29N 37°57' W 008°53'0 0.0
2018-Jan-11 00:59N 37°57' W 008°53'0 0.0
2018-Jan-11 00:29N 37°57' W 008°53'0 0.0
2018-Jan-10 23:59N 37°57' W 008°53'0 0.0
2018-Jan-10 23:29N 37°57' W 008°53'0 0.0
2018-Jan-10 22:59N 37°57' W 008°53'0 0.0
2018-Jan-10 22:29N 37°57' W 008°53'0 0.0
2018-Jan-10 21:59N 37°57' W 008°53'0 0.0
2018-Jan-10 21:29N 37°57' W 008°53'0 0.0
2018-Jan-10 20:59N 37°57' W 008°53'0 0.0
2018-Jan-10 20:29N 37°57' W 008°53'0 0.0
2018-Jan-10 19:59N 37°57' W 008°53'0 0.0
2018-Jan-10 19:29N 37°57' W 008°53'0 0.0
2018-Jan-10 18:59N 37°57' W 008°53'0 0.0
2018-Jan-10 18:30N 37°57' W 008°53'1 2.2
2018-Jan-10 18:01N 37°56' W 008°53'2 3.6
2018-Jan-10 17:30N 37°54' W 008°53'2 4.0
2018-Jan-10 17:00N 37°53' W 008°55'2 5.0
2018-Jan-10 16:30N 37°52' W 008°58'4 7.2
2018-Jan-10 16:00N 37°50' W 009°02'4 9.0
2018-Jan-10 15:30N 37°47' W 009°06'5 9.5
2018-Jan-10 15:00N 37°44' W 009°11'5 9.4
2018-Jan-10 14:31N 37°41' W 009°15'510.3
2018-Jan-10 14:00N 37°38' W 009°20'  

Dump ship's entire track history